Albuquerque (West), NM

7:24 AM MST on December 07, 2016 (GMT -0700)
Montecito Estates | | Change Station

Elev 5384 ft 35.16 °N, 106.73 °W | Updated 25 seconds ago

Mostly Cloudy
Mostly Cloudy
34.9 °F
Feels Like 35 °F
N
0.0
Wind Variable Wind from NW
Gusts 0.0 mph

Today
High -- | Low -- °F
--% Chance of Precip.
Yesterday
High -- | Low -- °F
Precip. -- in
Pressure 29.96 in
Visibility 10.0 miles
Clouds Mostly Cloudy 6000 ft
Windchill 35 °F
Dew Point 23 °F
Humidity 61%
Rainfall 0.00 in
Snow Depth Not available.
7:02 AM 4:55 PM
First Quarter, 53% visible
METAR KAEG 071347Z 17006KT 10SM BKN060 M02/M06 A2996
Pressure 29.96 in
Visibility 10.0 miles
Clouds Mostly Cloudy 6000 ft
Windchill 35 °F
Dew Point 23 °F
Humidity 61%
Rainfall 0.00 in
Snow Depth Not available.
7:02 AM 4:55 PM
First Quarter, 53% visible
METAR KAEG 071347Z 17006KT 10SM BKN060 M02/M06 A2996

10-Day Weather Forecast

Almanac

Astronomy

Dec. 07, 2016 Rise Set
Actual Time
Civil Twilight
Nautical Twilight
Astronomical Twilight
Moon
Length of Visible Light
Length of Day
Tomorrow will be .
, % of the Moon is Illuminated

Today's Extremes

State Highs State Lows

Community

WunderPhotos

Upload Photos

1,956,116 photos uploaded!

WunderBlog® & News

Nearby

Air Quality

  Air Quality AQ Index Pollutant
Not available.

Snow Depth

Station Depth Elevation

Earthquake Activity

City Distance Mag. Time & Date
Minimum magnitude displayed is 2.5.

Coastal Water Temperatures

Place Temperature

Stations

Nearby Weather Stations

Station Location Temp. Windchill Dew Point Humidity Wind Precip. Elev Updated Type
                   

Watches & Warnings

There are currently no watches in effect.